Impacts TAF Board INFO
FOR SITUATIONAL AWARENESS. NOT TO BE USED FOR FLIGHT PLANNING PURPOSES.
IDs:

KBDR - Bridgeport/Sikorsky, CT, US

Issued at 0837 UTC 11 Dec 2017
Updated at 0935 UTC 11 Dec 2017
Potential Impact None Slight Moderate High
Time<<11/22Z 11/23Z 12/00Z 12/01Z 12/02Z 12/03Z 12/04Z 12/05Z 12/06Z 12/07Z 12/08Z 12/09Z 12/10Z>>
Type PRVL PRVL PRVL PRVL PRVL PRVL PRVL PRVL
VIS >6 >6 >6 >6 >6 >6 >6 >6
CIG -- -- -- 250 250 250 250 100
Cover SCT SCT SCT BKN BKN BKN BKN OVC
FltCat VFR VFR VFR VFR VFR VFR VFR VFR
WX -- -- -- -- -- -- -- --
WDir 280 280 280 230 230 230 230 120
WSpd 6 6 6 4 4 4 4 4
WGst -- -- -- -- -- -- -- --

Raw TAF
KBDR 110837Z 1109/1206 25008KT P6SM SCT030 OVC050
  TEMPO 1110/1112 25008KT P6SM -SHSN OVC030
  FM111500 27010KT P6SM SCT030 SCT250
  FM112200 28006KT P6SM FEW030 SCT250
  FM120100 23004KT P6SM BKN250
  FM120500 12004KT P6SM OVC100


METAR Board
Radar Display
Forecast Discussion

FOR SITUATIONAL AWARENESS. NOT TO BE USED FOR FLIGHT PLANNING PURPOSES.